< < Back
Terminal Aerodrome Forecast


Current Version              Previous Versions:   1  2  3  4  5  6  7  8  9  

Terminal Aerodrome Forecast

507
FTUS42 KJAX 050520
TAFJAX
TAF
KJAX 050520Z 0506/0606 05004KT P6SM SCT040 BKN250
     FM051300 07010G15KT P6SM SCT040 BKN250
     FM051500 08016G24KT P6SM BKN040 BKN250
     FM060100 05006KT P6SM SCT040 BKN250=

Latest METAR

780
SAUS80 KWBC 050900
MTRJAX
METAR KJAX 050856Z 00000KT 10SM CLR 15/14 A3020 RMK AO2 SLP228 T01500144
56010


USA.gov is the U.S. government's official web portal to all federal, state and local government web resources and services.